Time;durP1;ratioP1;P1;durP2;ratioP2;P2;SDS_P1;SDS_P2;PMS_P1;PMS_P2;Temp;Humidity;BMP_temperature;BMP_pressure;BME280_temperature;BME280_humidity;BME280_pressure;Samples;Min_cycle;Max_cycle;Signal;HPM_P1;HPM_P2
2022/01/29 00:01:01;;;;;;;9.05;4.68;;;6.80;99.90;;;;;;5034651;28;20065;-56
2022/01/29 00:03:27;;;;;;;14.27;5.15;;;6.80;99.90;;;;;;5035474;28;20068;-52
2022/01/29 00:05:53;;;;;;;10.73;5.00;;;6.80;99.90;;;;;;5034573;28;20021;-56
2022/01/29 00:08:19;;;;;;;17.48;4.93;;;6.80;99.90;;;;;;5035365;28;20021;-52
2022/01/29 00:10:47;;;;;;;9.68;4.40;;;6.90;99.90;;;;;;5035336;28;20013;-53
2022/01/29 00:13:13;;;;;;;10.63;4.40;;;6.90;99.90;;;;;;5034987;28;20030;-50
2022/01/29 00:15:39;;;;;;;10.05;4.43;;;6.80;99.90;;;;;;5035304;28;20033;-53
2022/01/29 00:18:05;;;;;;;9.88;4.90;;;6.90;99.90;;;;;;5033898;28;20052;-54
2022/01/29 00:20:30;;;;;;;11.15;4.40;;;6.90;99.90;;;;;;5033987;28;20071;-55
2022/01/29 00:22:56;;;;;;;9.20;4.03;;;6.90;99.90;;;;;;5035126;28;20033;-54
2022/01/29 00:25:22;;;;;;;11.43;5.00;;;6.90;99.90;;;;;;5035401;28;20490;-52
2022/01/29 00:27:53;;;;;;;8.23;4.10;;;7.00;99.90;;;;;;5034833;28;20048;-47
2022/01/29 00:30:24;;;;;;;8.30;3.83;;;6.90;99.90;;;;;;5035081;28;20092;-50
2022/01/29 00:32:50;;;;;;;8.88;3.90;;;6.90;99.90;;;;;;5035065;28;20055;-48
2022/01/29 00:35:16;;;;;;;8.05;3.78;;;6.90;99.90;;;;;;5033645;28;20083;-48
2022/01/29 00:37:42;;;;;;;11.98;4.25;;;6.90;99.90;;;;;;5033470;28;20031;-50
2022/01/29 00:40:08;;;;;;;9.63;3.25;;;6.90;99.90;;;;;;5034827;28;20104;-47
2022/01/29 00:42:34;;;;;;;9.15;3.30;;;6.90;99.90;;;;;;5034701;28;20047;-48
2022/01/29 00:44:59;;;;;;;7.80;3.95;;;7.00;99.90;;;;;;5034702;28;20018;-49
2022/01/29 00:47:25;;;;;;;11.18;3.75;;;7.10;99.90;;;;;;5034657;28;20026;-50
2022/01/29 00:49:51;;;;;;;8.73;3.90;;;7.10;99.90;;;;;;5050220;28;20048;-48
2022/01/29 00:52:16;;;;;;;8.82;4.28;;;7.20;99.90;;;;;;5035127;28;20025;-47
2022/01/29 00:54:44;;;;;;;7.25;3.00;;;7.20;99.90;;;;;;5034352;28;20026;-48
2022/01/29 00:57:10;;;;;;;10.50;3.58;;;7.30;99.90;;;;;;5033221;28;20056;-49
2022/01/29 00:59:36;;;;;;;9.35;4.00;;;7.50;99.90;;;;;;5033104;28;20025;-47
2022/01/29 01:02:02;;;;;;;11.15;3.38;;;7.50;99.90;;;;;;5033403;28;20022;-48
2022/01/29 01:04:28;;;;;;;13.48;3.65;;;7.40;99.90;;;;;;5035206;28;20524;-49
2022/01/29 01:06:54;;;;;;;8.55;3.30;;;7.50;99.90;;;;;;5033005;28;20053;-49
2022/01/29 01:09:20;;;;;;;7.10;3.40;;;7.40;99.90;;;;;;5033086;28;20060;-51
2022/01/29 01:11:45;;;;;;;12.80;4.35;;;7.50;99.90;;;;;;5034240;28;20025;-47
2022/01/29 01:14:11;;;;;;;7.05;3.50;;;7.40;99.90;;;;;;5049565;28;20033;-52
2022/01/29 01:16:37;;;;;;;12.18;4.10;;;7.30;99.90;;;;;;5034212;28;20387;-48
2022/01/29 01:19:03;;;;;;;7.28;3.03;;;7.20;99.90;;;;;;5033071;28;20034;-47
2022/01/29 01:21:28;;;;;;;9.60;3.35;;;7.10;99.90;;;;;;5033984;28;20029;-50
2022/01/29 01:23:54;;;;;;;7.35;3.53;;;7.10;99.90;;;;;;5033908;28;20083;-49
2022/01/29 01:26:20;;;;;;;12.30;4.40;;;7.10;99.90;;;;;;5032709;28;20047;-48
2022/01/29 01:28:46;;;;;;;11.07;4.22;;;7.20;99.90;;;;;;5033869;28;20021;-49
2022/01/29 01:31:12;;;;;;;10.52;3.90;;;7.10;99.90;;;;;;5033513;28;20372;-48
2022/01/29 01:33:38;;;;;;;8.73;3.50;;;7.20;99.90;;;;;;5032570;28;20520;-47
2022/01/29 01:36:06;;;;;;;9.88;3.72;;;7.30;99.90;;;;;;5033805;28;20060;-48
2022/01/29 01:41:05;;;;;;;8.75;3.60;;;7.20;99.90;;;;;;5033952;28;20022;-48
2022/01/29 01:43:31;;;;;;;11.35;4.43;;;7.10;99.90;;;;;;5034079;28;20476;-52
2022/01/29 01:45:57;;;;;;;9.05;3.58;;;7.10;99.90;;;;;;5033954;28;20108;-50
2022/01/29 01:48:23;;;;;;;9.65;3.78;;;7.10;99.90;;;;;;5033077;28;20053;-47
2022/01/29 01:50:50;;;;;;;9.00;3.47;;;7.10;99.90;;;;;;5032348;28;20024;-49
2022/01/29 01:53:15;;;;;;;9.25;4.10;;;7.00;99.90;;;;;;5032339;28;20030;-49
2022/01/29 01:55:41;;;;;;;7.78;3.80;;;7.10;99.90;;;;;;5033488;28;20037;-49
2022/01/29 01:58:07;;;;;;;9.23;4.03;;;7.10;99.90;;;;;;5033391;28;20025;-52
2022/01/29 02:00:33;;;;;;;10.50;4.13;;;7.10;99.90;;;;;;5032184;28;20049;-48
2022/01/29 02:02:59;;;;;;;11.98;4.07;;;7.10;99.90;;;;;;5033337;28;20029;-48
2022/01/29 02:05:25;;;;;;;10.57;4.35;;;7.10;99.90;;;;;;5033410;28;20084;-47
2022/01/29 02:07:52;;;;;;;7.80;3.72;;;7.20;99.90;;;;;;5032127;28;20025;-48
2022/01/29 02:10:19;;;;;;;9.80;3.97;;;7.10;99.90;;;;;;5033321;28;20379;-48
2022/01/29 02:12:55;;;;;;;8.32;3.65;;;7.10;99.90;;;;;;5032979;28;20083;-47
2022/01/29 02:15:22;;;;;;;11.23;4.45;;;7.10;99.90;;;;;;5048736;28;20053;-48
2022/01/29 02:17:48;;;;;;;9.05;3.95;;;7.10;99.90;;;;;;5033167;28;20026;-47
2022/01/29 02:20:16;;;;;;;9.85;4.10;;;7.10;99.90;;;;;;5033213;28;20026;-47
2022/01/29 02:22:43;;;;;;;10.18;4.00;;;7.10;99.90;;;;;;5033209;28;20025;-50
2022/01/29 02:25:33;;;;;;;13.45;4.28;;;7.10;99.90;;;;;;5031937;28;20063;-47
2022/01/29 02:28:01;;;;;;;7.97;3.67;;;7.00;99.90;;;;;;5032140;28;20022;-47
2022/01/29 02:30:29;;;;;;;8.15;3.22;;;7.00;99.90;;;;;;5031936;28;20018;-47
2022/01/29 02:32:57;;;;;;;12.00;3.88;;;7.00;99.90;;;;;;5031914;28;20026;-47
2022/01/29 02:35:22;;;;;;;15.07;4.03;;;7.10;99.90;;;;;;5049312;28;20052;-47
2022/01/29 02:37:51;;;;;;;11.25;4.13;;;7.00;99.90;;;;;;5031819;28;20029;-48
2022/01/29 02:40:18;;;;;;;7.55;3.78;;;7.10;99.90;;;;;;5033048;28;20391;-47
2022/01/29 02:42:44;;;;;;;7.07;3.47;;;7.10;99.90;;;;;;5048302;28;20029;-47
2022/01/29 02:45:10;;;;;;;12.27;3.92;;;7.10;99.90;;;;;;5031823;28;20502;-47
2022/01/29 02:47:35;;;;;;;9.43;4.38;;;7.10;99.90;;;;;;5032966;28;20022;-49
2022/01/29 02:50:01;;;;;;;10.00;3.63;;;7.10;99.90;;;;;;5033023;28;20033;-47
2022/01/29 02:52:27;;;;;;;11.52;4.40;;;7.20;99.90;;;;;;5031946;28;20025;-47
2022/01/29 02:54:53;;;;;;;9.55;4.22;;;7.20;99.90;;;;;;5031826;28;20029;-49
2022/01/29 02:57:18;;;;;;;10.98;4.35;;;7.10;99.90;;;;;;5031727;28;20037;-49
2022/01/29 02:59:44;;;;;;;7.15;3.72;;;7.10;99.90;;;;;;5033097;28;20052;-48
2022/01/29 03:02:10;;;;;;;8.02;3.72;;;7.10;99.90;;;;;;5035917;28;20029;-48
2022/01/29 03:04:35;;;;;;;10.60;4.55;;;7.20;99.90;;;;;;5036563;28;20104;-47
2022/01/29 03:07:01;;;;;;;8.88;3.85;;;7.20;99.90;;;;;;5035550;28;20022;-49
2022/01/29 03:09:27;;;;;;;10.30;4.20;;;7.20;99.90;;;;;;5036581;28;20439;-47
2022/01/29 03:11:56;;;;;;;18.42;4.97;;;7.20;99.90;;;;;;5035562;28;20076;-47
2022/01/29 03:14:22;;;;;;;8.65;4.78;;;7.30;99.90;;;;;;5036736;28;20104;-47
2022/01/29 03:16:47;;;;;;;19.42;5.50;;;7.20;99.90;;;;;;5035509;28;20025;-48
2022/01/29 03:19:13;;;;;;;12.27;4.63;;;7.10;99.90;;;;;;5036246;28;20032;-48
2022/01/29 03:21:39;;;;;;;14.15;4.45;;;7.20;99.90;;;;;;5036561;28;20030;-49
2022/01/29 03:24:05;;;;;;;14.15;4.75;;;7.20;99.90;;;;;;5035316;28;20025;-47
2022/01/29 03:26:31;;;;;;;12.75;4.63;;;7.20;99.90;;;;;;5036176;28;20021;-48
2022/01/29 03:28:56;;;;;;;15.15;5.60;;;7.10;99.90;;;;;;5034888;28;20079;-47
2022/01/29 03:31:26;;;;;;;11.55;4.65;;;7.10;99.90;;;;;;5036141;28;20088;-47
2022/01/29 03:33:52;;;;;;;12.93;4.88;;;7.20;99.90;;;;;;5036171;28;20033;-48
2022/01/29 03:36:18;;;;;;;13.23;5.10;;;7.10;99.90;;;;;;5036098;28;20075;-47
2022/01/29 03:38:44;;;;;;;11.10;4.70;;;7.10;99.90;;;;;;5035895;28;20030;-50
2022/01/29 03:41:12;;;;;;;11.35;5.57;;;7.10;99.90;;;;;;5034945;28;20083;-47
2022/01/29 03:43:48;;;;;;;10.45;4.30;;;7.10;99.90;;;;;;5034754;28;20057;-50
2022/01/29 03:46:14;;;;;;;10.75;4.65;;;7.00;99.90;;;;;;5034631;28;20021;-47
2022/01/29 03:48:40;;;;;;;15.35;4.70;;;7.00;99.90;;;;;;5035851;28;20076;-49
2022/01/29 03:51:06;;;;;;;14.07;4.97;;;7.00;99.90;;;;;;5035793;28;20041;-53
2022/01/29 03:53:32;;;;;;;11.57;5.15;;;7.10;99.90;;;;;;5035773;28;20028;-52
2022/01/29 03:55:57;;;;;;;10.43;4.28;;;7.00;99.90;;;;;;5034470;28;20113;-55
2022/01/29 03:58:23;;;;;;;11.40;4.55;;;7.00;99.90;;;;;;5034596;28;20022;-51
2022/01/29 04:00:49;;;;;;;12.50;5.13;;;7.10;99.90;;;;;;5035410;28;20036;-53
2022/01/29 04:03:14;;;;;;;10.70;4.85;;;7.00;99.90;;;;;;5035582;28;20082;-54
2022/01/29 04:05:40;;;;;;;18.55;6.00;;;7.00;99.90;;;;;;5035555;28;20100;-47
2022/01/29 04:08:13;;;;;;;8.65;4.57;;;7.00;99.90;;;;;;5035376;28;20048;-49
2022/01/29 04:10:39;;;;;;;13.68;4.82;;;7.10;99.90;;;;;;5033827;28;20025;-48
2022/01/29 04:13:06;;;;;;;10.38;4.47;;;7.10;99.90;;;;;;5035465;28;20022;-48
2022/01/29 04:15:32;;;;;;;14.05;5.22;;;7.10;99.90;;;;;;5034377;28;20033;-48
2022/01/29 04:17:57;;;;;;;12.05;5.15;;;7.00;99.90;;;;;;5034052;28;20026;-47
2022/01/29 04:20:23;;;;;;;9.10;4.45;;;7.00;99.90;;;;;;5035594;28;20028;-51
2022/01/29 04:22:49;;;;;;;15.10;5.13;;;7.00;99.90;;;;;;5034695;28;20038;-47
2022/01/29 04:25:14;;;;;;;11.55;4.38;;;7.00;99.90;;;;;;5033872;28;20055;-47
2022/01/29 04:27:43;;;;;;;12.20;5.18;;;6.90;99.90;;;;;;5033780;28;20018;-49
2022/01/29 04:30:39;;;;;;;14.18;4.97;;;7.00;99.90;;;;;;5034912;28;20027;-48
2022/01/29 04:33:23;;;;;;;11.60;5.20;;;6.90;99.90;;;;;;5035165;28;20488;-49
2022/01/29 04:35:50;;;;;;;12.93;4.35;;;7.00;99.90;;;;;;5035260;28;20060;-48
2022/01/29 04:38:51;;;;;;;11.95;5.13;;;7.00;99.90;;;;;;5034770;28;20080;-51
2022/01/29 04:41:17;;;;;;;12.00;5.10;;;7.00;99.90;;;;;;5033671;28;20484;-48
2022/01/29 04:43:43;;;;;;;10.85;4.80;;;7.00;99.90;;;;;;5033458;28;20029;-48
2022/01/29 04:46:08;;;;;;;12.35;5.22;;;6.90;99.90;;;;;;5034896;28;20018;-50
2022/01/29 04:48:34;;;;;;;12.27;5.13;;;6.90;99.90;;;;;;5034629;28;20419;-48
2022/01/29 04:51:00;;;;;;;15.30;5.82;;;6.90;99.90;;;;;;5034931;28;20028;-48
2022/01/29 04:53:25;;;;;;;11.55;5.38;;;7.00;99.90;;;;;;5050730;28;20026;-51
2022/01/29 04:55:51;;;;;;;13.55;5.00;;;6.90;99.90;;;;;;5033808;28;20029;-48
2022/01/29 04:58:17;;;;;;;11.27;4.93;;;6.90;99.90;;;;;;5033204;28;20025;-48
2022/01/29 05:00:42;;;;;;;12.02;5.10;;;6.80;99.90;;;;;;5034190;28;20041;-51
2022/01/29 05:03:10;;;;;;;11.98;5.05;;;6.80;99.90;;;;;;5049896;28;20061;-51
2022/01/29 05:05:37;;;;;;;12.50;5.57;;;6.90;99.90;;;;;;5033153;28;20132;-47
2022/01/29 05:08:03;;;;;;;13.13;5.60;;;6.80;99.90;;;;;;5034883;28;20032;-49
2022/01/29 05:10:30;;;;;;;15.73;6.07;;;6.80;99.90;;;;;;5034338;28;20075;-48
2022/01/29 05:13:02;;;;;;;11.20;5.18;;;6.80;99.90;;;;;;5034464;28;20062;-50
2022/01/29 05:29:07;;;;;;;11.98;4.22;;;6.80;99.90;;;;;;5034171;28;20048;-48
2022/01/29 05:31:33;;;;;;;12.48;4.75;;;6.80;99.90;;;;;;5032708;28;20026;-47
2022/01/29 05:33:59;;;;;;;10.38;4.85;;;6.80;99.90;;;;;;5033896;28;20124;-50
2022/01/29 05:36:25;;;;;;;15.18;4.75;;;6.80;99.90;;;;;;5032941;28;20040;-49
2022/01/29 05:38:51;;;;;;;8.52;4.35;;;6.70;99.90;;;;;;5033747;28;20022;-49
2022/01/29 05:41:17;;;;;;;13.05;4.30;;;6.70;99.90;;;;;;5034017;28;20124;-47
2022/01/29 05:43:43;;;;;;;9.07;4.32;;;6.80;99.90;;;;;;5033987;28;20021;-50
2022/01/29 05:46:10;;;;;;;10.10;4.30;;;6.70;99.90;;;;;;5032468;28;20076;-49
2022/01/29 05:48:36;;;;;;;10.07;4.65;;;6.70;99.90;;;;;;5032329;28;20056;-49
2022/01/29 05:51:01;;;;;;;10.65;4.07;;;6.80;99.90;;;;;;5032422;28;20049;-50
2022/01/29 05:53:27;;;;;;;11.13;4.47;;;6.80;99.90;;;;;;5033815;28;20025;-50
2022/01/29 05:55:53;;;;;;;6.15;3.50;;;6.80;99.90;;;;;;5032283;28;20021;-48
2022/01/29 05:58:18;;;;;;;9.77;3.88;;;6.70;99.90;;;;;;5033461;28;20057;-53
2022/01/29 06:00:44;;;;;;;9.52;3.65;;;6.70;99.90;;;;;;5032053;28;20029;-52
2022/01/29 06:03:10;;;;;;;13.15;5.22;;;6.80;99.90;;;;;;5032483;28;20033;-52
2022/01/29 06:05:37;;;;;;;9.55;4.13;;;6.80;99.90;;;;;;5033425;28;20049;-48
2022/01/29 06:08:03;;;;;;;6.15;3.65;;;6.80;99.90;;;;;;5032121;28;20022;-47
2022/01/29 06:10:29;;;;;;;7.60;3.72;;;6.80;99.90;;;;;;5033643;28;20067;-48
2022/01/29 06:13:03;;;;;;;9.00;3.75;;;6.70;99.90;;;;;;5033429;28;20117;-47
2022/01/29 06:15:35;;;;;;;7.53;3.88;;;6.70;99.90;;;;;;5033399;28;20083;-49
2022/01/29 06:18:02;;;;;;;8.27;4.55;;;6.80;99.90;;;;;;5033301;28;20021;-48
2022/01/29 06:20:27;;;;;;;6.75;3.35;;;6.70;99.90;;;;;;5031947;28;20029;-47
2022/01/29 06:22:53;;;;;;;6.25;3.42;;;6.70;99.90;;;;;;5033176;28;20025;-47
2022/01/29 06:25:19;;;;;;;7.63;3.63;;;6.80;99.90;;;;;;5031952;28;20029;-47
2022/01/29 06:27:45;;;;;;;7.05;3.30;;;6.80;99.90;;;;;;5033400;28;20029;-47
2022/01/29 06:30:11;;;;;;;9.02;3.80;;;6.80;99.90;;;;;;5033164;28;20037;-47
2022/01/29 06:32:37;;;;;;;5.70;3.13;;;6.80;99.90;;;;;;5033236;28;20033;-47
2022/01/29 06:35:03;;;;;;;6.50;3.08;;;6.80;99.90;;;;;;5036217;28;20017;-47
2022/01/29 06:37:29;;;;;;;6.75;3.53;;;6.80;99.90;;;;;;5037095;28;20036;-48
2022/01/29 06:39:54;;;;;;;10.40;3.63;;;6.70;99.90;;;;;;5036741;28;20033;-47
2022/01/29 06:42:20;;;;;;;7.95;3.17;;;6.80;99.90;;;;;;5035740;28;20025;-47
2022/01/29 06:44:45;;;;;;;9.25;3.88;;;6.80;99.90;;;;;;5035717;28;20079;-47
2022/01/29 06:47:11;;;;;;;8.18;3.47;;;6.80;99.90;;;;;;5035674;28;20028;-47
2022/01/29 06:49:37;;;;;;;5.72;3.20;;;6.80;99.90;;;;;;5036906;28;20025;-47
2022/01/29 06:52:02;;;;;;;7.70;3.53;;;6.80;99.90;;;;;;5037196;28;20025;-48
2022/01/29 06:54:28;;;;;;;10.73;5.43;;;6.90;99.90;;;;;;5037100;28;20036;-48
2022/01/29 06:56:54;;;;;;;8.07;3.60;;;6.80;99.90;;;;;;5037002;28;20022;-48
2022/01/29 06:59:19;;;;;;;8.80;3.47;;;6.80;99.90;;;;;;5036756;28;20056;-47
2022/01/29 07:01:45;;;;;;;5.85;3.58;;;6.80;99.90;;;;;;5036602;28;20143;-47
2022/01/29 07:04:10;;;;;;;6.72;3.10;;;6.80;99.90;;;;;;5036270;28;20017;-48
2022/01/29 07:06:36;;;;;;;4.78;2.85;;;6.80;99.90;;;;;;5035373;28;20029;-47
2022/01/29 07:09:04;;;;;;;6.75;3.38;;;6.80;99.90;;;;;;5035626;28;20044;-48
2022/01/29 07:11:29;;;;;;;9.00;4.25;;;6.80;99.90;;;;;;5036483;28;20033;-47
2022/01/29 07:14:02;;;;;;;11.80;4.38;;;6.80;99.90;;;;;;5035195;28;20036;-47
2022/01/29 07:16:29;;;;;;;7.72;4.07;;;6.80;99.90;;;;;;5036465;28;20029;-48
2022/01/29 07:18:55;;;;;;;7.88;3.97;;;6.80;99.90;;;;;;5035911;28;20215;-48
2022/01/29 07:21:20;;;;;;;8.38;3.58;;;6.90;99.90;;;;;;5051649;28;20032;-49
2022/01/29 07:23:46;;;;;;;6.45;3.88;;;6.90;99.90;;;;;;5036914;28;20155;-47
2022/01/29 07:26:12;;;;;;;12.82;6.95;;;6.80;99.90;;;;;;5036252;28;20032;-48
2022/01/29 07:28:39;;;;;;;12.82;7.28;;;6.80;99.90;;;;;;5036174;28;20024;-48
2022/01/29 07:31:05;;;;;;;13.57;7.38;;;6.80;99.90;;;;;;5036429;28;20017;-49
2022/01/29 07:33:30;;;;;;;20.55;10.43;;;6.80;99.90;;;;;;5034913;28;20028;-48
2022/01/29 07:35:56;;;;;;;16.25;8.23;;;6.80;99.90;;;;;;5034799;28;20120;-47
2022/01/29 07:38:22;;;;;;;10.48;5.10;;;6.80;99.90;;;;;;5034764;28;20025;-51
2022/01/29 07:40:47;;;;;;;15.23;7.22;;;6.90;99.90;;;;;;5051329;28;20080;-48
2022/01/29 07:43:13;;;;;;;7.05;4.57;;;6.90;99.90;;;;;;5034679;28;20061;-50
2022/01/29 07:45:39;;;;;;;5.18;3.38;;;6.90;99.90;;;;;;5035371;28;20028;-50
2022/01/29 07:48:05;;;;;;;9.05;4.93;;;7.00;99.90;;;;;;5034662;28;20025;-50
2022/01/29 07:50:30;;;;;;;11.50;5.32;;;7.00;99.90;;;;;;5035082;28;20022;-48
2022/01/29 07:52:59;;;;;;;14.18;5.47;;;7.10;99.90;;;;;;5034631;28;20075;-48
2022/01/29 07:55:29;;;;;;;8.02;4.15;;;7.10;99.90;;;;;;5034507;28;20022;-49
2022/01/29 07:57:55;;;;;;;4.70;3.33;;;7.10;99.90;;;;;;5035528;28;20542;-51
2022/01/29 08:00:21;;;;;;;6.20;3.90;;;7.10;99.90;;;;;;5034396;28;20044;-51
2022/01/29 08:02:47;;;;;;;5.45;2.53;;;7.10;99.90;;;;;;5035865;28;20029;-54
2022/01/29 08:05:12;;;;;;;5.75;3.08;;;7.20;99.90;;;;;;5035624;28;20026;-50
2022/01/29 08:07:38;;;;;;;8.45;4.63;;;7.30;99.90;;;;;;5034456;28;20021;-49
2022/01/29 08:10:05;;;;;;;10.80;4.47;;;7.30;99.90;;;;;;5036102;28;20022;-48
2022/01/29 08:12:31;;;;;;;4.75;2.83;;;7.30;99.90;;;;;;5035386;28;20033;-49
2022/01/29 08:15:28;;;;;;;5.35;2.90;;;7.20;99.90;;;;;;5034590;28;20045;-51
2022/01/29 08:17:54;;;;;;;6.53;3.10;;;7.30;99.90;;;;;;5051427;28;20025;-48
2022/01/29 08:20:20;;;;;;;4.57;2.85;;;7.30;99.90;;;;;;5035249;28;20025;-52
2022/01/29 08:22:47;;;;;;;4.03;2.33;;;7.30;99.90;;;;;;5033865;28;20104;-49
2022/01/29 08:25:13;;;;;;;3.55;2.05;;;7.30;99.90;;;;;;5035332;28;20101;-50
2022/01/29 08:27:39;;;;;;;3.80;2.03;;;7.40;99.90;;;;;;5034708;28;20034;-50
2022/01/29 08:30:06;;;;;;;4.68;2.38;;;7.30;99.90;;;;;;5033979;28;20079;-49
2022/01/29 08:32:31;;;;;;;4.20;1.95;;;7.40;99.90;;;;;;5034143;28;20025;-49
2022/01/29 08:34:57;;;;;;;3.85;2.53;;;7.30;99.90;;;;;;5034635;28;20052;-48
2022/01/29 08:37:23;;;;;;;3.17;2.42;;;7.30;99.90;;;;;;5034851;28;20105;-47
2022/01/29 08:39:48;;;;;;;6.63;2.95;;;7.30;99.90;;;;;;5033616;28;20563;-51
2022/01/29 08:42:15;;;;;;;6.20;2.80;;;7.30;99.90;;;;;;5034036;28;20121;-55
2022/01/29 08:44:42;;;;;;;5.38;1.90;;;7.30;99.90;;;;;;5050441;28;20029;-48
2022/01/29 08:47:07;;;;;;;3.97;2.30;;;7.30;99.90;;;;;;5034693;28;20029;-47
2022/01/29 08:49:33;;;;;;;4.85;2.78;;;7.30;99.90;;;;;;5035011;28;20021;-48
2022/01/29 08:51:59;;;;;;;3.28;2.00;;;7.30;99.90;;;;;;5033789;28;20068;-53
2022/01/29 08:54:24;;;;;;;3.35;1.92;;;7.20;99.90;;;;;;5034584;28;20168;-47
2022/01/29 08:56:50;;;;;;;3.55;2.25;;;7.30;99.90;;;;;;5033347;28;20078;-48
2022/01/29 08:59:15;;;;;;;6.38;2.10;;;7.30;99.90;;;;;;5034707;28;20021;-51
2022/01/29 09:01:41;;;;;;;3.47;1.95;;;7.30;99.90;;;;;;5033598;28;20030;-49
2022/01/29 09:04:08;;;;;;;3.13;1.75;;;7.30;99.90;;;;;;5034016;28;20023;-47
2022/01/29 09:06:34;;;;;;;3.40;1.85;;;7.30;99.90;;;;;;5034488;28;20025;-49
2022/01/29 09:09:00;;;;;;;3.47;1.55;;;7.30;99.90;;;;;;5034414;28;20115;-48
2022/01/29 09:11:25;;;;;;;5.28;2.53;;;7.30;99.90;;;;;;5033170;28;20028;-48
2022/01/29 09:13:51;;;;;;;3.13;1.77;;;7.30;99.90;;;;;;5033072;28;20476;-48
2022/01/29 09:16:17;;;;;;;5.20;1.73;;;7.40;99.90;;;;;;5033812;28;20052;-51
2022/01/29 09:18:43;;;;;;;3.13;1.55;;;7.40;99.90;;;;;;5034170;28;20025;-46
2022/01/29 09:21:08;;;;;;;2.60;1.58;;;7.50;99.90;;;;;;5032994;28;20108;-47
2022/01/29 09:23:34;;;;;;;1.92;1.48;;;7.60;99.90;;;;;;5033016;28;20035;-50
2022/01/29 09:26:01;;;;;;;2.95;1.52;;;7.60;99.90;;;;;;5032848;28;20026;-47
2022/01/29 09:28:27;;;;;;;3.10;1.20;;;7.50;99.90;;;;;;5032725;28;20429;-47
2022/01/29 09:30:53;;;;;;;1.60;1.30;;;7.60;99.90;;;;;;5034335;28;20053;-50
2022/01/29 09:33:18;;;;;;;4.38;1.35;;;7.60;99.90;;;;;;5032688;28;20022;-50
2022/01/29 09:35:44;;;;;;;7.88;3.47;;;7.60;99.90;;;;;;5032690;28;20078;-49
2022/01/29 09:38:11;;;;;;;22.70;9.02;;;7.70;99.90;;;;;;5033771;28;20025;-49
2022/01/29 09:40:54;;;;;;;20.58;6.82;;;7.60;99.90;;;;;;5033658;28;20491;-49
2022/01/29 09:43:21;;;;;;;56.90;18.48;;;7.70;99.90;;;;;;5032423;28;20025;-47
2022/01/29 09:45:50;;;;;;;51.15;16.13;;;7.70;99.90;;;;;;5032784;28;20025;-47
2022/01/29 09:48:23;;;;;;;11.15;4.68;;;7.80;99.90;;;;;;5033608;28;20022;-47
2022/01/29 09:50:51;;;;;;;5.80;3.47;;;7.80;99.90;;;;;;5032642;28;20036;-49
2022/01/29 09:53:17;;;;;;;12.02;6.13;;;7.80;99.90;;;;;;5033813;28;20022;-46
2022/01/29 09:55:43;;;;;;;5.32;3.15;;;7.90;99.90;;;;;;5032226;28;20021;-49
2022/01/29 09:58:09;;;;;;;3.97;2.80;;;7.90;99.90;;;;;;5033504;28;20029;-51
2022/01/29 10:00:36;;;;;;;3.45;2.75;;;7.90;99.90;;;;;;5032468;28;20067;-52
2022/01/29 10:03:11;;;;;;;3.72;3.08;;;7.90;99.90;;;;;;5032497;28;20022;-54
2022/01/29 10:05:42;;;;;;;9.63;4.85;;;8.00;99.90;;;;;;5033554;28;20021;-50
2022/01/29 10:08:08;;;;;;;10.93;5.75;;;7.90;99.90;;;;;;5033261;28;20032;-48
2022/01/29 10:10:39;;;;;;;9.80;5.45;;;8.00;99.90;;;;;;5032993;28;20057;-47
2022/01/29 10:13:29;;;;;;;14.32;6.95;;;8.10;99.90;;;;;;5033319;28;20365;-48
2022/01/29 10:16:19;;;;;;;36.30;14.25;;;8.10;99.90;;;;;;5033362;28;20028;-47
2022/01/29 10:19:02;;;;;;;9.30;4.80;;;8.20;99.90;;;;;;5033260;28;20089;-47
2022/01/29 10:21:34;;;;;;;10.55;5.70;;;8.20;99.90;;;;;;5033454;28;20104;-47
2022/01/29 10:24:08;;;;;;;10.02;4.85;;;8.30;99.90;;;;;;5033383;28;20025;-48
2022/01/29 10:26:41;;;;;;;5.97;3.63;;;8.30;99.90;;;;;;5033253;28;20480;-52
2022/01/29 10:29:21;;;;;;;7.95;4.63;;;8.40;99.90;;;;;;5033037;28;20029;-47
2022/01/29 10:31:52;;;;;;;5.13;2.70;;;8.40;99.90;;;;;;5033241;28;20022;-50
2022/01/29 10:34:26;;;;;;;6.60;3.40;;;8.50;99.90;;;;;;5033413;28;20029;-50
2022/01/29 10:37:19;;;;;;;2.78;1.83;;;8.60;99.90;;;;;;5033052;28;20108;-46
2022/01/29 10:39:50;;;;;;;3.25;2.17;;;8.70;99.90;;;;;;5032688;28;20032;-49
2022/01/29 10:42:27;;;;;;;2.07;1.40;;;8.70;99.90;;;;;;5032625;28;20037;-47
2022/01/29 10:44:55;;;;;;;2.60;1.70;;;8.60;99.90;;;;;;5031835;28;20089;-49
2022/01/29 10:47:21;;;;;;;3.00;1.90;;;8.70;99.90;;;;;;5032992;28;20025;-49
2022/01/29 10:49:59;;;;;;;2.83;2.17;;;8.80;99.90;;;;;;5031818;28;20164;-47
2022/01/29 10:52:35;;;;;;;3.20;1.83;;;8.80;99.90;;;;;;5032631;28;20036;-47
2022/01/29 10:55:06;;;;;;;2.45;1.45;;;8.70;99.90;;;;;;5031867;28;20106;-46
2022/01/29 10:57:39;;;;;;;1.63;0.93;;;8.80;99.90;;;;;;5032987;28;20025;-47
2022/01/29 11:00:08;;;;;;;1.20;0.80;;;8.80;99.90;;;;;;5031496;28;20639;-47
2022/01/29 11:02:33;;;;;;;3.85;2.20;;;8.80;99.90;;;;;;5032597;28;20067;-49
2022/01/29 11:05:04;;;;;;;2.50;1.50;;;8.80;99.90;;;;;;5031656;28;20105;-51
2022/01/29 11:07:30;;;;;;;2.85;1.00;;;8.90;99.90;;;;;;5031588;28;20044;-47
2022/01/29 11:09:59;;;;;;;1.48;1.15;;;9.00;99.90;;;;;;5032877;28;20021;-48
2022/01/29 11:12:27;;;;;;;2.17;1.80;;;9.00;99.90;;;;;;5048211;28;20025;-46
2022/01/29 11:14:55;;;;;;;2.55;1.90;;;9.10;99.90;;;;;;5031645;28;20435;-48
2022/01/29 11:17:23;;;;;;;1.58;1.15;;;9.10;99.90;;;;;;5032663;28;20108;-48
2022/01/29 11:19:49;;;;;;;3.90;2.45;;;9.10;99.90;;;;;;5032731;28;20022;-47
2022/01/29 11:22:23;;;;;;;1.55;1.38;;;9.00;99.90;;;;;;5034008;28;20025;-48
2022/01/29 11:25:08;;;;;;;2.33;1.13;;;9.00;99.90;;;;;;5036748;28;20095;-48
2022/01/29 11:27:39;;;;;;;2.95;2.45;;;9.10;99.90;;;;;;5035026;28;20022;-53
2022/01/29 11:30:14;;;;;;;4.20;1.63;;;9.00;99.90;;;;;;5035066;28;20021;-47
2022/01/29 11:32:42;;;;;;;2.17;1.15;;;9.10;99.90;;;;;;5036153;28;20257;-46
2022/01/29 11:35:16;;;;;;;1.33;0.98;;;9.10;99.90;;;;;;5035089;28;20064;-49
2022/01/29 11:37:45;;;;;;;1.95;1.50;;;9.10;99.90;;;;;;5036409;28;20108;-49
2022/01/29 11:40:31;;;;;;;2.20;0.82;;;9.10;99.90;;;;;;5034909;28;20021;-48
2022/01/29 11:43:06;;;;;;;1.75;0.80;;;9.10;99.90;;;;;;5035562;28;20025;-50
2022/01/29 11:45:45;;;;;;;1.55;0.77;;;9.10;99.90;;;;;;5036524;28;20021;-49
2022/01/29 11:48:28;;;;;;;1.10;0.90;;;9.10;99.90;;;;;;5034703;28;20369;-50
2022/01/29 11:50:59;;;;;;;0.93;0.82;;;9.20;99.90;;;;;;5036206;28;20018;-49
2022/01/29 11:53:26;;;;;;;1.70;0.70;;;9.30;99.90;;;;;;5035943;28;20025;-48
2022/01/29 11:55:56;;;;;;;1.95;0.77;;;9.30;99.90;;;;;;5034889;28;20109;-50
2022/01/29 12:01:44;;;;;;;1.15;0.70;;;9.40;99.90;;;;;;5035825;28;20125;-50
2022/01/29 12:04:10;;;;;;;0.52;0.52;;;9.40;99.90;;;;;;5034394;28;20041;-49
2022/01/29 12:06:41;;;;;;;2.63;0.90;;;9.50;99.90;;;;;;5034346;28;20072;-46
2022/01/29 12:09:19;;;;;;;1.48;0.93;;;9.60;99.90;;;;;;5035515;28;20021;-47
2022/01/29 12:12:18;;;;;;;1.75;0.98;;;9.70;99.90;;;;;;5034392;28;20077;-45
2022/01/29 12:14:51;;;;;;;1.23;0.70;;;9.70;99.90;;;;;;5035424;28;20029;-49
2022/01/29 12:17:34;;;;;;;1.45;0.60;;;9.70;99.90;;;;;;5035718;28;20095;-54
2022/01/29 12:20:02;;;;;;;1.10;1.00;;;9.60;99.90;;;;;;5035615;28;20388;-48
2022/01/29 12:22:31;;;;;;;1.05;0.75;;;9.60;99.90;;;;;;5034369;28;20029;-47
2022/01/29 12:24:59;;;;;;;1.70;1.00;;;9.50;99.90;;;;;;5034344;28;20358;-47
2022/01/29 12:27:40;;;;;;;2.83;1.15;;;9.50;99.90;;;;;;5035817;28;20017;-47
2022/01/29 12:30:06;;;;;;;0.55;0.52;;;9.60;99.90;;;;;;5035477;28;20029;-47
2022/01/29 12:32:32;;;;;;;0.68;0.52;;;9.50;99.90;;;;;;5034373;28;20125;-47
2022/01/29 12:34:59;;;;;;;0.80;0.77;;;9.50;99.90;;;;;;5035081;28;20109;-47
2022/01/29 12:37:25;;;;;;;1.27;0.82;;;9.50;99.90;;;;;;5033956;28;20021;-47
2022/01/29 12:40:06;;;;;;;1.00;0.60;;;9.50;99.90;;;;;;5035306;28;20063;-47
2022/01/29 12:42:44;;;;;;;0.60;0.60;;;9.60;99.90;;;;;;5033776;28;20029;-47
2022/01/29 12:45:10;;;;;;;1.00;0.70;;;9.60;99.90;;;;;;5033705;28;20048;-47
2022/01/29 12:47:36;;;;;;;0.52;0.50;;;9.60;99.90;;;;;;5050064;28;20021;-47
2022/01/29 12:50:03;;;;;;;0.60;0.60;;;9.60;99.90;;;;;;5035080;28;20021;-47
2022/01/29 12:52:30;;;;;;;0.68;0.60;;;9.60;99.90;;;;;;5034816;28;20029;-49
2022/01/29 12:54:58;;;;;;;1.75;0.50;;;9.60;99.90;;;;;;5033780;28;20029;-46
2022/01/29 12:57:25;;;;;;;0.60;0.47;;;9.70;99.90;;;;;;5033681;28;20107;-48
2022/01/29 12:59:51;;;;;;;0.82;0.35;;;9.60;99.90;;;;;;5033365;28;20029;-47
2022/01/29 13:02:20;;;;;;;3.20;0.63;;;9.60;99.90;;;;;;5034515;28;20036;-48
2022/01/29 13:04:48;;;;;;;0.90;0.52;;;9.70;99.90;;;;;;5034547;28;20029;-45
2022/01/29 13:07:17;;;;;;;0.65;0.40;;;9.70;99.90;;;;;;5034421;28;20021;-45
2022/01/29 13:09:42;;;;;;;0.73;0.60;;;9.80;99.90;;;;;;5034708;28;20067;-47
2022/01/29 13:12:12;;;;;;;1.67;0.50;;;9.80;99.90;;;;;;5034603;28;20029;-48
2022/01/29 13:14:39;;;;;;;0.60;0.60;;;9.80;99.90;;;;;;5049560;28;20117;-47
2022/01/29 13:17:07;;;;;;;0.65;0.38;;;9.80;99.90;;;;;;5034170;28;20026;-47